createdAt,value
2022-10-17T00:02:33.523Z,8.98
2022-10-17T00:07:36.895Z,9.05
2022-10-17T00:12:41.775Z,9.11
2022-10-17T00:17:45.460Z,8.93
2022-10-17T00:22:48.864Z,8.86
2022-10-17T00:27:53.602Z,8.81
2022-10-17T00:32:56.918Z,8.96
2022-10-17T00:38:00.359Z,8.99
2022-10-17T00:43:05.107Z,9.09
2022-10-17T00:48:10.631Z,8.98
2022-10-17T00:53:15.178Z,8.60
2022-10-17T00:58:21.279Z,8.48
2022-10-17T01:03:25.134Z,8.46
2022-10-17T01:08:28.725Z,8.36
2022-10-17T01:13:39.348Z,8.33
2022-10-17T01:18:57.329Z,8.38
2022-10-17T01:24:26.787Z,8.42
2022-10-17T01:29:54.362Z,8.37
2022-10-17T01:35:02.873Z,8.41
2022-10-17T01:40:12.024Z,8.43
2022-10-17T01:45:21.025Z,8.46
2022-10-17T01:50:32.588Z,8.45
2022-10-17T01:55:40.231Z,8.30
2022-10-17T02:00:46.858Z,8.32
2022-10-17T02:05:51.728Z,8.26
2022-10-17T02:10:59.807Z,8.07
2022-10-17T02:16:15.178Z,8.04
2022-10-17T02:21:29.960Z,8.03
2022-10-17T02:26:38.539Z,7.99
2022-10-17T02:31:47.180Z,8.01
2022-10-17T02:36:54.656Z,7.99
2022-10-17T02:42:03.025Z,7.92
2022-10-17T02:47:14.185Z,8.01
2022-10-17T02:52:27.055Z,8.01
2022-10-17T02:57:35.506Z,8.00
2022-10-17T03:02:43.059Z,7.92
2022-10-17T03:07:48.083Z,7.83
2022-10-17T03:12:51.591Z,8.00
2022-10-17T03:17:56.981Z,8.03
2022-10-17T03:23:02.055Z,8.02
2022-10-17T03:28:06.675Z,8.25
2022-10-17T03:33:10.065Z,8.25
2022-10-17T03:38:15.201Z,8.18
2022-10-17T03:43:18.621Z,8.09
2022-10-17T03:48:22.897Z,8.03
2022-10-17T03:53:28.238Z,7.78
2022-10-17T03:58:32.723Z,7.78
2022-10-17T04:03:37.126Z,7.71
2022-10-17T04:08:42.856Z,7.74
2022-10-17T04:13:55.949Z,7.77
2022-10-17T04:19:01.436Z,7.73
2022-10-17T04:24:12.704Z,7.92
2022-10-17T04:29:25.644Z,7.88
2022-10-17T04:34:33.634Z,7.92
2022-10-17T04:39:38.758Z,8.00
2022-10-17T04:44:42.762Z,8.07
2022-10-17T04:49:46.260Z,8.16
2022-10-17T04:54:53.546Z,8.28
2022-10-17T04:59:58.452Z,8.39
2022-10-17T05:05:24.991Z,8.51
2022-10-17T05:10:31.767Z,8.60
2022-10-17T05:15:36.287Z,8.75
2022-10-17T05:20:40.011Z,8.91
2022-10-17T05:25:44.970Z,8.89
2022-10-17T05:30:48.411Z,9.04
2022-10-17T05:35:52.966Z,9.16
2022-10-17T05:41:00.562Z,9.26
2022-10-17T05:46:06.675Z,9.43
2022-10-17T05:51:11.995Z,9.53
2022-10-17T05:56:20.411Z,9.63
2022-10-17T06:01:25.868Z,9.88
2022-10-17T06:06:30.068Z,10.25
2022-10-17T06:11:35.404Z,10.49
2022-10-17T06:16:39.122Z,10.72
2022-10-17T06:21:42.676Z,10.94
2022-10-17T06:26:51.285Z,11.26
2022-10-17T06:31:57.466Z,11.69
2022-10-17T06:37:02.365Z,12.12
2022-10-17T06:42:08.719Z,12.59
2022-10-17T06:47:44.459Z,13.02
2022-10-17T06:53:03.491Z,13.34
2022-10-17T06:58:23.431Z,13.70
2022-10-17T07:03:50.006Z,13.98
2022-10-17T07:08:55.722Z,14.01
2022-10-17T07:14:00.977Z,14.15
2022-10-17T07:19:04.827Z,14.61
2022-10-17T07:24:12.470Z,14.93
2022-10-17T07:29:20.632Z,15.20
2022-10-17T07:34:35.505Z,15.45
2022-10-17T07:39:40.173Z,15.91
2022-10-17T07:44:47.473Z,16.21
2022-10-17T07:49:51.541Z,16.44
2022-10-17T07:54:54.995Z,16.49
2022-10-17T08:00:00.105Z,16.84
2022-10-17T08:05:03.474Z,17.06
2022-10-17T08:15:13.761Z,17.42
2022-10-17T08:20:17.308Z,17.69
2022-10-17T08:25:20.735Z,18.09
2022-10-17T08:30:25.791Z,18.45
2022-10-17T08:35:29.375Z,18.60
2022-10-17T08:40:33.878Z,18.72
2022-10-17T08:45:46.263Z,18.89
2022-10-17T08:50:54.258Z,19.30
2022-10-17T08:55:59.293Z,19.70
2022-10-17T09:01:13.274Z,19.20
2022-10-17T09:06:24.518Z,19.88
2022-10-17T09:11:50.125Z,20.19
2022-10-17T09:17:09.932Z,20.26
2022-10-17T09:22:18.406Z,20.38
2022-10-17T09:27:25.640Z,19.82
2022-10-17T09:32:30.603Z,19.15
2022-10-17T09:37:34.358Z,19.85
2022-10-17T09:42:38.306Z,20.40
2022-10-17T09:52:55.266Z,19.62
2022-10-17T09:58:00.281Z,19.85
2022-10-17T10:03:23.410Z,19.76
2022-10-17T10:08:30.225Z,21.02
2022-10-17T10:13:35.704Z,19.75
2022-10-17T10:18:40.622Z,20.33
2022-10-17T10:23:45.363Z,20.61
2022-10-17T10:28:55.483Z,20.67
2022-10-17T10:34:03.430Z,20.92
2022-10-17T10:39:07.968Z,20.31
2022-10-17T10:44:16.249Z,19.59
2022-10-17T10:49:35.785Z,20.60
2022-10-17T10:54:43.562Z,19.40
2022-10-17T10:59:58.432Z,20.59
2022-10-17T11:05:08.196Z,19.67
2022-10-17T11:10:18.922Z,21.08
2022-10-17T11:15:27.187Z,20.30
2022-10-17T11:20:39.705Z,21.09
2022-10-17T11:25:43.396Z,22.30
2022-10-17T11:30:51.450Z,22.91
2022-10-17T11:36:02.755Z,21.20
2022-10-17T11:41:09.126Z,21.97
2022-10-17T11:46:16.690Z,22.11
2022-10-17T11:56:52.860Z,21.90
2022-10-17T12:02:01.021Z,22.10
2022-10-17T12:07:16.944Z,22.08
2022-10-17T12:12:29.256Z,22.57
2022-10-17T12:17:37.003Z,21.77
2022-10-17T12:22:48.243Z,21.60
2022-10-17T12:27:52.480Z,21.88
2022-10-17T12:33:06.593Z,21.28
2022-10-17T12:38:28.736Z,20.87
2022-10-17T12:43:53.888Z,20.78
2022-10-17T12:49:02.668Z,20.50
2022-10-17T12:54:13.657Z,20.43
2022-10-17T12:59:19.577Z,20.18
2022-10-17T13:04:24.047Z,19.94
2022-10-17T13:09:31.457Z,19.56
2022-10-17T13:14:35.853Z,19.48
2022-10-17T13:19:43.675Z,19.18
2022-10-17T13:24:49.449Z,19.26
2022-10-17T13:29:53.088Z,19.36
2022-10-17T13:35:12.776Z,18.90
2022-10-17T13:40:40.751Z,18.80
2022-10-17T13:45:50.894Z,18.43
2022-10-17T13:51:00.362Z,18.34
2022-10-17T13:56:34.464Z,18.30
2022-10-17T14:01:39.608Z,18.29
2022-10-17T14:06:47.866Z,18.10
2022-10-17T14:12:02.994Z,17.83
2022-10-17T14:17:14.785Z,17.62
2022-10-17T14:22:25.549Z,17.26
2022-10-17T14:27:34.580Z,17.11
2022-10-17T14:32:39.118Z,16.85
2022-10-17T14:37:46.043Z,16.70
2022-10-17T14:42:52.108Z,16.74
2022-10-17T14:47:58.557Z,16.54
2022-10-17T14:53:05.372Z,16.45
2022-10-17T14:58:23.148Z,16.27
2022-10-17T15:03:27.217Z,16.12
2022-10-17T15:08:30.672Z,15.92
2022-10-17T15:13:41.020Z,15.69
2022-10-17T15:18:45.592Z,15.67
2022-10-17T15:23:49.107Z,15.45
2022-10-17T15:28:54.780Z,15.26
2022-10-17T15:33:58.436Z,15.14
2022-10-17T15:39:03.316Z,14.96
2022-10-17T15:44:08.798Z,14.83
2022-10-17T15:49:14.867Z,14.68
2022-10-17T15:54:18.252Z,14.49
2022-10-17T15:59:26.241Z,14.40
2022-10-17T16:04:30.732Z,14.21
2022-10-17T16:09:34.448Z,14.13
2022-10-17T16:14:39.238Z,13.99
2022-10-17T16:19:42.807Z,13.89
2022-10-17T16:24:46.481Z,13.72
2022-10-17T16:29:51.265Z,13.67
2022-10-17T16:34:54.711Z,13.56
2022-10-17T16:39:58.135Z,13.59
2022-10-17T16:45:03.516Z,13.44
2022-10-17T16:50:07.922Z,13.27
2022-10-17T16:55:12.072Z,13.12
2022-10-17T17:00:18.287Z,13.05
2022-10-17T17:05:21.646Z,12.97
2022-10-17T17:10:24.997Z,12.68
2022-10-17T17:15:29.800Z,12.44
2022-10-17T17:20:34.980Z,12.18
2022-10-17T17:25:39.465Z,12.23
2022-10-17T17:30:44.202Z,12.15
2022-10-17T17:35:47.633Z,12.36
2022-10-17T17:40:51.893Z,12.45
2022-10-17T17:45:57.018Z,12.05
2022-10-17T17:51:04.503Z,11.67
2022-10-17T17:56:10.266Z,11.46
2022-10-17T18:01:20.439Z,11.19
2022-10-17T18:06:24.250Z,11.03
2022-10-17T18:11:28.921Z,10.98
2022-10-17T18:16:35.423Z,10.91
2022-10-17T18:21:39.179Z,10.58
2022-10-17T18:26:42.556Z,10.42
2022-10-17T18:31:47.781Z,10.45
2022-10-17T18:36:52.894Z,10.25
2022-10-17T18:41:56.331Z,10.27
2022-10-17T18:47:04.100Z,10.34
2022-10-17T18:52:08.058Z,10.00
2022-10-17T18:57:11.400Z,9.79
2022-10-17T19:02:16.154Z,9.82
2022-10-17T19:07:20.262Z,9.60
2022-10-17T19:12:23.639Z,9.61
2022-10-17T19:17:28.780Z,9.60
2022-10-17T19:22:33.250Z,9.43
2022-10-17T19:27:37.602Z,9.19
2022-10-17T19:32:42.474Z,9.22
2022-10-17T19:37:46.109Z,9.06
2022-10-17T19:42:49.703Z,9.13
2022-10-17T19:47:54.504Z,9.17
2022-10-17T19:52:57.911Z,9.14
2022-10-17T19:58:02.803Z,9.18
2022-10-17T20:03:07.541Z,8.97
2022-10-17T20:08:10.949Z,8.89
2022-10-17T20:13:15.238Z,8.81
2022-10-17T20:18:20.316Z,8.83
2022-10-17T20:23:24.100Z,8.83
2022-10-17T20:28:27.742Z,8.74
2022-10-17T20:33:32.855Z,8.71
2022-10-17T20:38:36.868Z,8.63
2022-10-17T20:43:40.523Z,8.55
2022-10-17T20:48:45.377Z,8.61
2022-10-17T20:53:49.326Z,8.49
2022-10-17T20:58:54.731Z,8.43
2022-10-17T21:04:10.606Z,8.44
2022-10-17T21:09:23.501Z,8.30
2022-10-17T21:14:26.991Z,8.40
2022-10-17T21:19:31.789Z,8.60
2022-10-17T21:24:35.196Z,8.43
2022-10-17T21:29:38.491Z,8.14
2022-10-17T21:34:43.570Z,7.95
2022-10-17T21:39:46.961Z,7.84
2022-10-17T21:44:50.702Z,7.91
2022-10-17T21:49:56.206Z,8.02
2022-10-17T21:54:59.811Z,8.10
2022-10-17T22:00:03.264Z,7.79
2022-10-17T22:05:17.581Z,7.73
2022-10-17T22:10:20.977Z,7.71
2022-10-17T22:15:24.690Z,7.72
2022-10-17T22:20:29.553Z,7.58
2022-10-17T22:25:33.044Z,7.39
2022-10-17T22:30:36.765Z,7.35
2022-10-17T22:35:41.968Z,7.36
2022-10-17T22:40:46.303Z,7.27
2022-10-17T22:45:56.728Z,7.28
2022-10-17T22:51:01.906Z,7.26
2022-10-17T22:56:08.467Z,7.31
2022-10-17T23:01:16.152Z,7.21
2022-10-17T23:06:22.192Z,7.10
2022-10-17T23:11:25.647Z,7.00
2022-10-17T23:16:29.016Z,6.89
2022-10-17T23:21:34.078Z,6.92
2022-10-17T23:26:37.477Z,6.95
2022-10-17T23:31:41.135Z,7.01
2022-10-17T23:36:45.913Z,7.16
2022-10-17T23:41:49.297Z,7.44
2022-10-17T23:46:52.657Z,7.49
2022-10-17T23:51:57.391Z,7.34
2022-10-17T23:57:00.778Z,7.38
